createdAt,value
2018-03-15T00:00:42.311Z,2.32
2018-03-15T00:01:42.497Z,2.33
2018-03-15T00:02:42.649Z,2.36
2018-03-15T00:03:42.829Z,2.38
2018-03-15T00:04:43.014Z,2.46
2018-03-15T00:05:43.179Z,2.39
2018-03-15T00:06:43.357Z,2.38
2018-03-15T00:07:43.534Z,2.43
2018-03-15T00:08:43.706Z,2.43
2018-03-15T00:09:43.876Z,2.39
2018-03-15T00:10:44.054Z,2.29
2018-03-15T00:11:44.228Z,2.29
2018-03-15T00:12:44.406Z,2.22
2018-03-15T00:13:44.577Z,2.18
2018-03-15T00:14:44.755Z,2.15
2018-03-15T00:15:44.934Z,2.20
2018-03-15T00:16:45.107Z,2.10
2018-03-15T00:17:45.287Z,2.20
2018-03-15T00:18:45.464Z,2.29
2018-03-15T00:19:45.639Z,2.25
2018-03-15T00:20:45.822Z,2.33
2018-03-15T00:21:45.996Z,2.35
2018-03-15T00:22:46.165Z,2.42
2018-03-15T00:23:46.339Z,2.42
2018-03-15T00:24:46.513Z,2.36
2018-03-15T00:25:46.691Z,2.46
2018-03-15T00:26:46.866Z,2.44
2018-03-15T00:27:47.039Z,2.38
2018-03-15T00:28:47.214Z,2.44
2018-03-15T00:29:47.394Z,2.50
2018-03-15T00:30:47.566Z,2.35
2018-03-15T00:31:47.752Z,2.49
2018-03-15T00:32:47.923Z,2.43
2018-03-15T00:33:48.092Z,2.53
2018-03-15T00:34:48.266Z,2.57
2018-03-15T00:35:48.439Z,2.60
2018-03-15T00:36:48.634Z,2.61
2018-03-15T00:37:48.807Z,2.54
2018-03-15T00:38:48.978Z,2.60
2018-03-15T00:39:49.160Z,2.72
2018-03-15T00:40:49.336Z,2.61
2018-03-15T00:41:49.518Z,2.61
2018-03-15T00:42:49.691Z,2.54
2018-03-15T00:43:49.865Z,2.61
2018-03-15T00:44:50.039Z,2.57
2018-03-15T00:45:50.213Z,2.51
2018-03-15T00:47:50.554Z,2.51
2018-03-15T00:48:50.729Z,2.54
2018-03-15T00:49:50.906Z,2.57
2018-03-15T00:50:51.081Z,2.51
2018-03-15T00:51:51.260Z,2.54
2018-03-15T00:52:51.459Z,2.64
2018-03-15T00:53:51.609Z,2.53
2018-03-15T00:54:51.780Z,2.51
2018-03-15T00:55:51.957Z,2.36
2018-03-15T00:56:52.127Z,2.44
2018-03-15T00:57:59.940Z,2.43
2018-03-15T00:58:52.475Z,2.54
2018-03-15T00:59:52.652Z,2.54
2018-03-15T01:00:52.820Z,2.62
2018-03-15T01:01:52.988Z,2.60
2018-03-15T01:02:53.160Z,2.62
2018-03-15T01:03:53.334Z,2.68
2018-03-15T01:04:53.533Z,2.71
2018-03-15T01:05:53.662Z,2.77
2018-03-15T01:06:53.842Z,2.79
2018-03-15T01:07:54.005Z,2.89
2018-03-15T01:08:54.191Z,2.90
2018-03-15T01:09:54.348Z,2.93
2018-03-15T01:10:54.514Z,3.05
2018-03-15T01:11:54.689Z,3.16
2018-03-15T01:12:54.863Z,3.13
2018-03-15T01:13:55.028Z,3.16
2018-03-15T01:14:55.203Z,3.21
2018-03-15T01:15:55.387Z,3.14
2018-03-15T01:16:55.556Z,3.23
2018-03-15T01:17:55.724Z,3.22
2018-03-15T01:18:55.897Z,3.21
2018-03-15T01:19:56.071Z,3.32
2018-03-15T01:20:56.246Z,3.37
2018-03-15T01:21:56.419Z,3.29
2018-03-15T01:22:56.600Z,3.31
2018-03-15T01:23:56.769Z,3.31
2018-03-15T01:24:56.933Z,3.40
2018-03-15T01:25:57.102Z,3.31
2018-03-15T01:26:57.273Z,3.36
2018-03-15T01:27:57.449Z,3.26
2018-03-15T01:28:57.674Z,3.23
2018-03-15T01:29:57.796Z,3.21
2018-03-15T01:30:57.971Z,3.22
2018-03-15T01:31:58.144Z,3.25
2018-03-15T01:32:58.323Z,3.18
2018-03-15T01:33:58.479Z,3.16
2018-03-15T01:34:58.654Z,3.22
2018-03-15T01:35:58.827Z,3.13
2018-03-15T01:36:59.007Z,3.08
2018-03-15T01:37:59.228Z,3.19
2018-03-15T01:38:59.345Z,3.08
2018-03-15T01:39:59.516Z,3.11
2018-03-15T01:40:59.692Z,3.19
2018-03-15T01:41:59.866Z,3.25
2018-03-15T01:43:00.042Z,3.21
2018-03-15T01:44:00.222Z,3.34
2018-03-15T01:45:00.391Z,3.31
2018-03-15T01:46:00.566Z,3.31
2018-03-15T01:47:00.738Z,3.40
2018-03-15T01:48:00.926Z,3.32
2018-03-15T01:49:01.103Z,3.41
2018-03-15T01:50:01.276Z,3.51
2018-03-15T01:51:01.451Z,3.41
2018-03-15T01:52:01.620Z,3.48
2018-03-15T01:53:01.816Z,3.47
2018-03-15T01:54:01.970Z,3.55
2018-03-15T01:55:02.148Z,3.48
2018-03-15T01:56:02.314Z,3.50
2018-03-15T01:57:02.495Z,3.51
2018-03-15T01:58:02.667Z,3.60
2018-03-15T01:59:02.834Z,3.68
2018-03-15T02:00:03.008Z,3.63
2018-03-15T02:01:03.181Z,3.60
2018-03-15T02:02:03.356Z,3.62
2018-03-15T02:03:03.527Z,3.60
2018-03-15T02:04:03.700Z,3.60
2018-03-15T02:05:03.874Z,3.60
2018-03-15T02:06:04.051Z,3.66
2018-03-15T02:07:04.231Z,3.65
2018-03-15T02:08:04.399Z,3.65
2018-03-15T02:09:04.564Z,3.69
2018-03-15T02:10:04.751Z,3.60
2018-03-15T02:11:04.921Z,3.58
2018-03-15T02:12:05.087Z,3.74
2018-03-15T02:13:05.269Z,3.60
2018-03-15T02:14:05.442Z,3.74
2018-03-15T02:15:05.623Z,3.65
2018-03-15T02:16:05.795Z,3.69
2018-03-15T02:17:05.963Z,3.66
2018-03-15T02:18:06.152Z,3.62
2018-03-15T02:19:06.319Z,3.48
2018-03-15T02:20:06.485Z,3.48
2018-03-15T02:21:06.652Z,3.45
2018-03-15T02:22:06.832Z,3.47
2018-03-15T02:23:07.007Z,3.55
2018-03-15T02:24:07.180Z,3.44
2018-03-15T02:25:07.355Z,3.45
2018-03-15T02:26:07.542Z,3.41
2018-03-15T02:27:07.698Z,3.40
2018-03-15T02:28:07.869Z,3.32
2018-03-15T02:29:08.045Z,3.47
2018-03-15T02:30:08.224Z,3.53
2018-03-15T02:31:08.389Z,3.53
2018-03-15T02:32:08.566Z,3.37
2018-03-15T02:33:08.993Z,3.26
2018-03-15T02:34:08.912Z,3.23
2018-03-15T02:35:09.086Z,3.22
2018-03-15T02:36:09.262Z,3.16
2018-03-15T02:37:09.439Z,3.37
2018-03-15T02:38:09.612Z,3.40
2018-03-15T02:39:09.785Z,3.29
2018-03-15T02:40:09.965Z,3.44
2018-03-15T02:41:10.136Z,3.45
2018-03-15T02:42:10.322Z,3.37
2018-03-15T02:43:10.504Z,3.36
2018-03-15T02:44:10.655Z,3.34
2018-03-15T02:45:10.834Z,3.37
2018-03-15T02:46:11.000Z,3.26
2018-03-15T02:47:11.175Z,3.23
2018-03-15T02:48:11.346Z,3.19
2018-03-15T02:49:11.521Z,3.19
2018-03-15T02:50:11.696Z,3.14
2018-03-15T02:51:11.873Z,3.13
2018-03-15T02:52:12.041Z,3.16
2018-03-15T02:53:12.220Z,3.19
2018-03-15T02:54:12.389Z,3.21
2018-03-15T02:55:12.561Z,3.22
2018-03-15T02:57:12.896Z,3.34
2018-03-15T02:58:13.072Z,3.32
2018-03-15T02:59:13.244Z,3.37
2018-03-15T03:00:13.421Z,3.37
2018-03-15T03:01:13.591Z,3.37
2018-03-15T03:02:13.767Z,3.40
2018-03-15T03:03:13.943Z,3.47
2018-03-15T03:04:14.112Z,3.32
2018-03-15T03:05:14.286Z,3.11
2018-03-15T03:06:14.533Z,3.01
2018-03-15T03:07:14.653Z,2.89
2018-03-15T03:08:14.821Z,2.72
2018-03-15T03:09:15.004Z,2.71
2018-03-15T03:10:15.167Z,2.68
2018-03-15T03:11:15.339Z,2.61
2018-03-15T03:12:15.509Z,2.64
2018-03-15T03:13:15.682Z,2.64
2018-03-15T03:14:15.857Z,2.56
2018-03-15T03:15:16.032Z,2.64
2018-03-15T03:16:16.210Z,2.64
2018-03-15T03:17:16.382Z,2.51
2018-03-15T03:18:16.545Z,2.57
2018-03-15T03:19:16.725Z,2.57
2018-03-15T03:20:16.892Z,2.56
2018-03-15T03:21:17.069Z,2.53
2018-03-15T03:22:17.241Z,2.60
2018-03-15T03:23:17.450Z,2.51
2018-03-15T03:24:17.629Z,2.53
2018-03-15T03:25:17.798Z,2.46
2018-03-15T03:26:17.962Z,2.39
2018-03-15T03:27:18.138Z,2.38
2018-03-15T03:28:18.309Z,2.29
2018-03-15T03:29:18.486Z,2.33
2018-03-15T03:30:18.652Z,2.29
2018-03-15T03:31:18.824Z,2.20
2018-03-15T03:32:19.000Z,2.13
2018-03-15T03:33:19.168Z,2.17
2018-03-15T03:34:19.346Z,2.11
2018-03-15T03:35:19.518Z,2.15
2018-03-15T03:36:19.699Z,2.17
2018-03-15T03:37:19.874Z,2.15
2018-03-15T03:38:20.045Z,2.18
2018-03-15T03:39:20.216Z,2.15
2018-03-15T03:40:20.396Z,2.24
2018-03-15T03:41:20.561Z,2.20
2018-03-15T03:42:20.741Z,2.18
2018-03-15T03:43:20.912Z,2.18
2018-03-15T03:44:21.087Z,2.13
2018-03-15T03:45:21.264Z,2.11
2018-03-15T03:46:21.433Z,2.11
2018-03-15T03:47:21.609Z,2.04
2018-03-15T03:48:21.779Z,1.88
2018-03-15T03:49:21.958Z,1.76
2018-03-15T03:50:22.128Z,1.70
2018-03-15T03:51:22.296Z,1.74
2018-03-15T03:52:22.463Z,1.67
2018-03-15T03:53:22.643Z,1.62
2018-03-15T03:54:22.811Z,1.70
2018-03-15T03:55:22.994Z,1.68
2018-03-15T03:56:23.160Z,1.68
2018-03-15T03:57:23.323Z,1.68
2018-03-15T03:58:23.488Z,1.63
2018-03-15T03:59:23.663Z,1.66
2018-03-15T04:00:23.839Z,1.63
2018-03-15T04:01:24.009Z,1.70
2018-03-15T04:02:24.182Z,1.63
2018-03-15T04:03:24.405Z,1.59
2018-03-15T04:04:24.530Z,1.68
2018-03-15T04:05:24.707Z,1.67
2018-03-15T04:06:24.877Z,1.71
2018-03-15T04:07:25.093Z,1.73
2018-03-15T04:08:25.269Z,1.66
2018-03-15T04:09:25.483Z,1.66
2018-03-15T04:10:25.612Z,1.67
2018-03-15T04:11:25.782Z,1.55
2018-03-15T04:12:25.955Z,1.53
2018-03-15T04:13:26.128Z,1.55
2018-03-15T04:14:26.303Z,1.45
2018-03-15T04:15:26.478Z,1.53
2018-03-15T04:16:26.645Z,1.59
2018-03-15T04:17:26.838Z,1.52
2018-03-15T04:18:26.994Z,1.41
2018-03-15T04:19:27.164Z,1.37
2018-03-15T04:20:27.336Z,1.40
2018-03-15T04:21:27.511Z,1.38
2018-03-15T04:22:27.681Z,1.41
2018-03-15T04:23:27.858Z,1.38
2018-03-15T04:24:28.035Z,1.37
2018-03-15T04:25:28.210Z,1.35
2018-03-15T04:26:28.421Z,1.37
2018-03-15T04:27:28.554Z,1.34
2018-03-15T04:28:28.724Z,1.31
2018-03-15T04:29:29.137Z,1.35
2018-03-15T04:30:29.076Z,1.45
2018-03-15T04:31:29.238Z,1.50
2018-03-15T04:32:29.410Z,1.45
2018-03-15T04:33:29.578Z,1.63
2018-03-15T04:34:29.753Z,1.63
2018-03-15T04:35:29.928Z,1.66
2018-03-15T04:36:30.097Z,1.62
2018-03-15T04:37:30.267Z,1.66
2018-03-15T04:38:30.440Z,1.62
2018-03-15T04:39:30.613Z,1.70
2018-03-15T04:40:30.788Z,1.73
2018-03-15T04:41:30.959Z,1.62
2018-03-15T04:42:31.137Z,1.70
2018-03-15T04:43:31.306Z,1.66
2018-03-15T04:44:31.482Z,1.62
2018-03-15T04:45:31.651Z,1.71
2018-03-15T04:46:31.834Z,1.70
2018-03-15T04:47:32.001Z,1.68
2018-03-15T04:48:32.173Z,1.76
2018-03-15T04:49:32.341Z,1.81
2018-03-15T04:50:32.535Z,1.73
2018-03-15T04:51:32.701Z,1.60
2018-03-15T04:52:32.856Z,1.73
2018-03-15T04:53:33.024Z,1.70
2018-03-15T04:54:33.195Z,1.67
2018-03-15T04:55:33.370Z,1.71
2018-03-15T04:56:33.549Z,1.67
2018-03-15T04:57:33.748Z,1.73
2018-03-15T04:58:33.942Z,1.66
2018-03-15T04:59:34.068Z,1.74
2018-03-15T05:00:34.243Z,1.67
2018-03-15T05:01:34.416Z,1.85
2018-03-15T05:02:34.591Z,1.80
2018-03-15T05:03:34.760Z,1.67
2018-03-15T05:04:34.932Z,1.73
2018-03-15T05:05:35.098Z,1.71
2018-03-15T05:06:35.278Z,1.49
2018-03-15T05:07:35.451Z,1.53
2018-03-15T05:08:35.625Z,1.59
2018-03-15T05:09:35.796Z,1.55
2018-03-15T05:10:35.980Z,1.67
2018-03-15T05:11:36.146Z,1.63
2018-03-15T05:12:36.339Z,1.38
2018-03-15T05:13:36.490Z,1.42
2018-03-15T05:14:36.666Z,1.58
2018-03-15T05:15:36.840Z,1.60
2018-03-15T05:16:37.009Z,1.55
2018-03-15T05:17:37.192Z,1.50
2018-03-15T05:18:37.355Z,1.41
2018-03-15T05:19:37.536Z,1.38
2018-03-15T05:20:37.702Z,1.14
2018-03-15T05:21:37.891Z,1.20
2018-03-15T05:22:38.042Z,1.26
2018-03-15T05:23:38.215Z,1.24
2018-03-15T05:24:38.394Z,1.31
2018-03-15T05:25:38.571Z,1.26
2018-03-15T05:26:38.736Z,1.23
2018-03-15T05:27:38.912Z,1.40
2018-03-15T05:28:39.097Z,1.40
2018-03-15T05:29:39.257Z,1.34
2018-03-15T05:30:39.427Z,1.41
2018-03-15T05:31:39.602Z,1.44
2018-03-15T05:32:39.775Z,1.38
2018-03-15T05:33:39.950Z,1.40
2018-03-15T05:34:40.123Z,1.37
2018-03-15T05:35:40.296Z,1.44
2018-03-15T05:36:40.477Z,1.52
2018-03-15T05:37:40.639Z,1.60
2018-03-15T05:38:40.808Z,1.52
2018-03-15T05:39:40.973Z,1.52
2018-03-15T05:40:41.146Z,1.60
2018-03-15T05:41:41.320Z,1.41
2018-03-15T05:42:41.493Z,1.41
2018-03-15T05:43:41.662Z,1.38
2018-03-15T05:44:41.834Z,1.45
2018-03-15T05:45:42.020Z,1.52
2018-03-15T05:46:42.183Z,1.44
2018-03-15T05:47:42.357Z,1.37
2018-03-15T05:48:42.530Z,1.41
2018-03-15T05:49:42.700Z,1.50
2018-03-15T05:50:42.877Z,1.49
2018-03-15T05:51:43.046Z,1.52
2018-03-15T05:52:43.222Z,1.60
2018-03-15T05:53:43.399Z,1.60
2018-03-15T05:54:43.569Z,1.63
2018-03-15T05:55:43.747Z,1.60
2018-03-15T05:56:43.921Z,1.59
2018-03-15T05:57:44.089Z,1.62
2018-03-15T05:58:44.273Z,1.74
2018-03-15T05:59:44.443Z,1.66
2018-03-15T06:00:44.611Z,1.81
2018-03-15T06:01:44.771Z,1.76
2018-03-15T06:02:44.941Z,1.87
2018-03-15T06:03:45.117Z,1.80
2018-03-15T06:04:45.298Z,1.81
2018-03-15T06:05:45.469Z,1.88
2018-03-15T06:06:45.642Z,1.91
2018-03-15T06:07:45.813Z,1.94
2018-03-15T06:08:45.995Z,2.04
2018-03-15T06:09:46.165Z,1.95
2018-03-15T06:10:46.339Z,2.08
2018-03-15T06:11:46.527Z,2.08
2018-03-15T06:12:46.676Z,2.22
2018-03-15T06:13:46.848Z,2.14
2018-03-15T06:14:47.020Z,2.11
2018-03-15T06:15:47.192Z,2.18
2018-03-15T06:16:47.671Z,2.20
2018-03-15T06:17:47.541Z,2.11
2018-03-15T06:18:47.721Z,2.15
2018-03-15T06:19:47.893Z,2.17
2018-03-15T06:20:48.057Z,2.22
2018-03-15T06:21:48.241Z,2.29
2018-03-15T06:22:48.411Z,2.44
2018-03-15T06:23:48.587Z,2.60
2018-03-15T06:24:48.763Z,2.98
2018-03-15T06:25:48.933Z,3.41
2018-03-15T06:26:49.116Z,3.51
2018-03-15T06:27:49.288Z,3.63
2018-03-15T06:28:49.484Z,3.95
2018-03-15T06:29:49.625Z,4.32
2018-03-15T06:30:49.801Z,4.73
2018-03-15T06:31:49.973Z,5.00
2018-03-15T06:32:50.149Z,5.28
2018-03-15T06:33:50.321Z,5.36
2018-03-15T06:34:50.504Z,5.20
2018-03-15T06:35:50.674Z,5.44
2018-03-15T06:36:50.850Z,5.73
2018-03-15T06:37:51.026Z,5.94
2018-03-15T06:38:51.205Z,5.51
2018-03-15T06:39:51.355Z,5.29
2018-03-15T06:40:51.530Z,5.41
2018-03-15T06:41:51.706Z,5.93
2018-03-15T06:42:51.883Z,6.11
2018-03-15T06:43:52.060Z,6.19
2018-03-15T06:44:52.239Z,5.93
2018-03-15T06:45:52.419Z,5.86
2018-03-15T06:46:52.598Z,5.99
2018-03-15T06:47:52.767Z,5.94
2018-03-15T06:48:52.948Z,5.90
2018-03-15T06:49:53.137Z,5.44
2018-03-15T06:50:53.304Z,5.80
2018-03-15T06:51:53.497Z,5.93
2018-03-15T06:52:53.663Z,5.94
2018-03-15T06:53:53.852Z,6.17
2018-03-15T06:54:54.124Z,6.07
2018-03-15T06:55:54.187Z,6.45
2018-03-15T06:56:54.354Z,6.49
2018-03-15T06:57:54.527Z,6.66
2018-03-15T06:58:54.976Z,6.78
2018-03-15T06:59:54.883Z,6.87
2018-03-15T07:00:55.061Z,6.54
2018-03-15T07:01:55.238Z,7.02
2018-03-15T07:02:55.419Z,7.18
2018-03-15T07:03:55.595Z,7.31
2018-03-15T07:04:55.788Z,7.21
2018-03-15T07:05:55.956Z,7.40
2018-03-15T07:06:56.128Z,7.24
2018-03-15T07:07:56.311Z,7.53
2018-03-15T07:08:56.495Z,7.90
2018-03-15T07:09:56.668Z,7.31
2018-03-15T07:10:56.857Z,7.32
2018-03-15T07:11:57.034Z,7.06
2018-03-15T07:12:57.214Z,6.59
2018-03-15T07:13:57.387Z,6.52
2018-03-15T07:14:57.566Z,7.02
2018-03-15T07:15:57.744Z,7.36
2018-03-15T07:16:57.939Z,7.07
2018-03-15T07:17:58.113Z,7.38
2018-03-15T07:18:58.291Z,7.06
2018-03-15T07:19:58.477Z,7.07
2018-03-15T07:20:58.649Z,7.10
2018-03-15T07:21:58.830Z,7.31
2018-03-15T07:22:59.013Z,7.11
2018-03-15T07:23:59.196Z,7.33
2018-03-15T07:24:59.374Z,7.32
2018-03-15T07:25:59.552Z,7.54
2018-03-15T07:26:59.729Z,6.64
2018-03-15T07:27:59.908Z,7.11
2018-03-15T07:29:00.086Z,6.72
2018-03-15T07:30:00.276Z,7.02
2018-03-15T07:31:00.448Z,7.24
2018-03-15T07:32:00.634Z,7.23
2018-03-15T07:33:00.830Z,7.28
2018-03-15T07:34:00.990Z,7.42
2018-03-15T07:35:01.161Z,7.60
2018-03-15T07:36:01.355Z,7.28
2018-03-15T07:37:01.525Z,7.13
2018-03-15T07:38:01.716Z,7.32
2018-03-15T07:39:01.888Z,7.76
2018-03-15T07:40:02.073Z,7.93
2018-03-15T07:41:02.254Z,8.16
2018-03-15T07:42:02.434Z,8.27
2018-03-15T07:43:02.612Z,8.41
2018-03-15T07:44:02.793Z,8.23
2018-03-15T07:45:02.970Z,7.76
2018-03-15T07:46:03.153Z,7.72
2018-03-15T07:47:03.339Z,7.75
2018-03-15T07:48:03.513Z,7.80
2018-03-15T07:49:03.695Z,8.03
2018-03-15T07:50:03.883Z,7.90
2018-03-15T07:51:04.059Z,7.67
2018-03-15T07:52:04.250Z,8.05
2018-03-15T07:53:04.427Z,7.61
2018-03-15T07:54:04.608Z,8.08
2018-03-15T07:55:04.788Z,6.74
2018-03-15T07:56:04.984Z,7.20
2018-03-15T07:57:05.144Z,7.10
2018-03-15T07:58:05.321Z,6.89
2018-03-15T07:59:05.517Z,7.20
2018-03-15T08:00:05.693Z,7.48
2018-03-15T08:01:05.867Z,7.47
2018-03-15T08:02:06.046Z,7.23
2018-03-15T08:03:06.230Z,7.56
2018-03-15T08:04:06.414Z,7.82
2018-03-15T08:05:06.617Z,7.95
2018-03-15T08:06:06.792Z,8.27
2018-03-15T08:07:06.970Z,7.67
2018-03-15T08:08:07.148Z,7.58
2018-03-15T08:09:07.327Z,7.70
2018-03-15T08:10:07.510Z,7.88
2018-03-15T08:11:07.700Z,7.66
2018-03-15T08:12:07.869Z,7.82
2018-03-15T08:13:08.049Z,7.72
2018-03-15T08:14:08.228Z,8.09
2018-03-15T08:15:08.413Z,7.93
2018-03-15T08:16:08.592Z,8.09
2018-03-15T08:17:08.777Z,7.23
2018-03-15T08:18:08.948Z,7.39
2018-03-15T08:19:09.130Z,7.47
2018-03-15T08:20:09.319Z,7.38
2018-03-15T08:21:09.494Z,7.83
2018-03-15T08:22:09.673Z,7.73
2018-03-15T08:23:09.852Z,7.79
2018-03-15T08:24:10.031Z,7.61
2018-03-15T08:25:10.209Z,7.85
2018-03-15T08:26:10.389Z,7.88
2018-03-15T08:27:10.576Z,7.51
2018-03-15T08:28:10.751Z,7.39
2018-03-15T08:29:10.941Z,8.00
2018-03-15T08:30:11.108Z,8.06
2018-03-15T08:31:11.295Z,8.10
2018-03-15T08:32:11.471Z,8.33
2018-03-15T08:33:11.649Z,8.61
2018-03-15T08:34:11.828Z,8.76
2018-03-15T08:35:12.007Z,8.97
2018-03-15T08:36:12.194Z,8.34
2018-03-15T08:37:12.370Z,8.26
2018-03-15T08:38:12.547Z,8.28
2018-03-15T08:39:12.736Z,8.74
2018-03-15T08:40:12.906Z,8.58
2018-03-15T08:41:13.085Z,8.45
2018-03-15T08:42:13.268Z,8.01
2018-03-15T08:43:13.440Z,8.61
2018-03-15T08:44:13.626Z,8.84
2018-03-15T08:45:13.814Z,8.85
2018-03-15T08:46:14.018Z,9.03
2018-03-15T08:47:14.171Z,8.63
2018-03-15T08:48:14.341Z,8.55
2018-03-15T08:49:14.524Z,8.92
2018-03-15T08:50:14.702Z,8.69
2018-03-15T08:51:14.879Z,8.74
2018-03-15T08:52:15.061Z,8.88
2018-03-15T08:53:15.240Z,8.61
2018-03-15T08:54:15.423Z,8.67
2018-03-15T08:55:15.603Z,8.95
2018-03-15T08:56:15.806Z,9.06
2018-03-15T08:57:15.968Z,8.74
2018-03-15T08:58:16.147Z,9.39
2018-03-15T08:59:16.339Z,9.41
2018-03-15T09:00:16.511Z,9.29
2018-03-15T09:01:16.691Z,9.54
2018-03-15T09:02:16.864Z,9.28
2018-03-15T09:03:17.051Z,8.94
2018-03-15T09:04:17.231Z,9.21
2018-03-15T09:05:17.404Z,9.62
2018-03-15T09:06:17.726Z,9.54
2018-03-15T09:07:17.770Z,9.25
2018-03-15T09:08:17.946Z,9.68
2018-03-15T09:09:18.173Z,9.50
2018-03-15T09:10:18.310Z,9.54
2018-03-15T09:11:18.494Z,9.72
2018-03-15T09:12:18.677Z,10.10
2018-03-15T09:13:18.858Z,10.09
2018-03-15T09:14:19.041Z,10.09
2018-03-15T09:15:19.218Z,10.13
2018-03-15T09:16:19.399Z,10.42
2018-03-15T09:17:19.582Z,9.87
2018-03-15T09:18:19.766Z,9.77
2018-03-15T09:19:19.948Z,10.01
2018-03-15T09:20:20.123Z,10.13
2018-03-15T09:21:20.305Z,10.53
2018-03-15T09:22:20.492Z,10.63
2018-03-15T09:23:20.670Z,10.41
2018-03-15T09:24:20.850Z,10.46
2018-03-15T09:25:21.027Z,10.76
2018-03-15T09:26:21.221Z,10.86
2018-03-15T09:27:21.396Z,10.99
2018-03-15T09:28:21.573Z,10.69
2018-03-15T09:29:21.766Z,11.27
2018-03-15T09:30:21.954Z,11.10
2018-03-15T09:31:22.130Z,11.25
2018-03-15T09:32:22.308Z,11.23
2018-03-15T09:33:22.492Z,11.48
2018-03-15T09:34:22.743Z,11.77
2018-03-15T09:35:22.860Z,11.44
2018-03-15T09:36:23.044Z,11.90
2018-03-15T09:37:23.228Z,12.20
2018-03-15T09:38:23.407Z,12.02
2018-03-15T09:39:23.590Z,11.02
2018-03-15T09:40:23.874Z,11.62
2018-03-15T09:41:23.919Z,11.94
2018-03-15T09:42:24.176Z,11.57
2018-03-15T09:43:24.390Z,11.65
2018-03-15T09:44:24.445Z,11.69
2018-03-15T09:45:24.643Z,11.52
2018-03-15T09:46:24.822Z,11.94
2018-03-15T09:47:25.001Z,12.17
2018-03-15T09:48:25.185Z,12.91
2018-03-15T09:49:25.376Z,13.20
2018-03-15T09:50:25.547Z,12.60
2018-03-15T09:51:25.746Z,12.39
2018-03-15T09:52:25.919Z,12.25
2018-03-15T09:53:26.091Z,12.67
2018-03-15T09:54:26.274Z,12.12
2018-03-15T09:56:26.631Z,12.07
2018-03-15T09:57:26.819Z,12.27
2018-03-15T09:58:26.997Z,11.90
2018-03-15T09:59:27.184Z,12.47
2018-03-15T10:00:27.367Z,12.47
2018-03-15T10:01:27.549Z,12.68
2018-03-15T10:02:27.732Z,12.65
2018-03-15T10:03:27.911Z,12.06
2018-03-15T10:04:28.095Z,11.36
2018-03-15T10:05:28.279Z,11.37
2018-03-15T10:06:28.468Z,12.31
2018-03-15T10:07:28.655Z,12.06
2018-03-15T10:08:28.828Z,11.57
2018-03-15T10:09:29.020Z,12.09
2018-03-15T10:10:29.196Z,11.65
2018-03-15T10:11:29.385Z,11.80
2018-03-15T10:12:29.570Z,12.15
2018-03-15T10:13:29.752Z,12.20
2018-03-15T10:14:29.938Z,11.73
2018-03-15T10:15:30.125Z,11.88
2018-03-15T10:16:30.295Z,12.62
2018-03-15T10:17:30.484Z,12.49
2018-03-15T10:18:30.684Z,12.29
2018-03-15T10:19:30.870Z,12.60
2018-03-15T10:20:31.059Z,12.10
2018-03-15T10:21:31.233Z,12.57
2018-03-15T10:22:31.415Z,12.54
2018-03-15T10:23:31.601Z,12.67
2018-03-15T10:24:31.786Z,12.54
2018-03-15T10:25:31.993Z,12.07
2018-03-15T10:26:32.160Z,12.36
2018-03-15T10:27:32.389Z,12.36
2018-03-15T10:28:32.532Z,12.27
2018-03-15T10:29:32.703Z,12.02
2018-03-15T10:30:32.901Z,12.25
2018-03-15T10:31:33.078Z,11.66
2018-03-15T10:32:33.259Z,12.22
2018-03-15T10:33:33.438Z,12.12
2018-03-15T10:34:33.618Z,12.61
2018-03-15T10:35:33.798Z,12.35
2018-03-15T10:36:33.982Z,12.78
2018-03-15T10:37:34.163Z,13.68
2018-03-15T10:38:34.362Z,13.72
2018-03-15T10:39:34.528Z,12.72
2018-03-15T10:40:34.712Z,13.03
2018-03-15T10:41:34.900Z,13.08
2018-03-15T10:42:35.091Z,13.00
2018-03-15T10:43:35.276Z,12.93
2018-03-15T10:44:35.472Z,12.90
2018-03-15T10:45:35.646Z,12.85
2018-03-15T10:46:35.809Z,12.72
2018-03-15T10:47:35.992Z,13.18
2018-03-15T10:48:36.180Z,13.33
2018-03-15T10:49:36.363Z,13.44
2018-03-15T10:50:36.564Z,13.62
2018-03-15T10:51:36.728Z,13.56
2018-03-15T10:52:36.932Z,13.41
2018-03-15T10:53:37.091Z,13.16
2018-03-15T10:54:37.275Z,14.00
2018-03-15T10:55:37.461Z,14.50
2018-03-15T10:56:37.643Z,14.30
2018-03-15T10:57:37.829Z,14.43
2018-03-15T10:58:38.015Z,14.26
2018-03-15T10:59:38.214Z,14.63
2018-03-15T11:00:38.372Z,14.29
2018-03-15T11:01:38.568Z,13.37
2018-03-15T11:02:38.752Z,13.86
2018-03-15T11:03:38.953Z,12.72
2018-03-15T11:04:39.133Z,13.23
2018-03-15T11:05:39.319Z,12.10
2018-03-15T11:06:39.501Z,12.36
2018-03-15T11:07:39.685Z,12.72
2018-03-15T11:08:39.873Z,13.04
2018-03-15T11:09:40.053Z,12.76
2018-03-15T11:10:40.244Z,13.16
2018-03-15T11:11:40.420Z,12.49
2018-03-15T11:12:40.603Z,13.19
2018-03-15T11:13:40.798Z,13.53
2018-03-15T11:14:40.983Z,14.22
2018-03-15T11:15:41.168Z,13.89
2018-03-15T11:16:41.344Z,14.33
2018-03-15T11:17:41.528Z,13.83
2018-03-15T11:18:41.711Z,14.07
2018-03-15T11:19:41.903Z,14.18
2018-03-15T11:20:42.081Z,13.77
2018-03-15T11:21:42.268Z,12.62
2018-03-15T11:22:42.449Z,12.73
2018-03-15T11:23:42.724Z,13.08
2018-03-15T11:24:42.841Z,13.12
2018-03-15T11:25:42.994Z,13.19
2018-03-15T11:26:43.234Z,13.85
2018-03-15T11:27:43.364Z,14.54
2018-03-15T11:28:43.550Z,13.90
2018-03-15T11:29:43.732Z,13.04
2018-03-15T11:30:43.916Z,13.18
2018-03-15T11:31:44.101Z,12.87
2018-03-15T11:32:44.283Z,13.16
2018-03-15T11:33:44.471Z,13.25
2018-03-15T11:34:44.638Z,13.47
2018-03-15T11:35:44.821Z,13.50
2018-03-15T11:36:45.002Z,13.52
2018-03-15T11:37:45.183Z,13.23
2018-03-15T11:38:45.368Z,13.38
2018-03-15T11:39:45.551Z,12.93
2018-03-15T11:40:45.740Z,13.20
2018-03-15T11:41:45.926Z,13.15
2018-03-15T11:42:46.111Z,12.98
2018-03-15T11:43:46.303Z,12.37
2018-03-15T11:44:46.466Z,11.62
2018-03-15T11:45:46.979Z,11.88
2018-03-15T11:46:46.830Z,11.55
2018-03-15T11:47:47.027Z,11.30
2018-03-15T11:48:47.189Z,11.41
2018-03-15T11:49:47.395Z,11.63
2018-03-15T11:50:47.544Z,11.95
2018-03-15T11:51:47.731Z,11.70
2018-03-15T11:52:47.910Z,11.52
2018-03-15T11:53:48.096Z,11.18
2018-03-15T11:54:48.270Z,10.97
2018-03-15T11:55:48.458Z,11.02
2018-03-15T11:56:48.631Z,11.22
2018-03-15T11:57:48.819Z,11.23
2018-03-15T11:58:48.997Z,10.84
2018-03-15T11:59:49.182Z,10.44
2018-03-15T12:00:49.366Z,10.67
2018-03-15T12:01:49.590Z,10.81
2018-03-15T12:02:49.706Z,10.60
2018-03-15T12:03:49.880Z,10.89
2018-03-15T12:04:50.065Z,11.44
2018-03-15T12:05:50.241Z,11.73
2018-03-15T12:06:50.424Z,11.40
2018-03-15T12:07:50.634Z,11.29
2018-03-15T12:08:50.766Z,10.99
2018-03-15T12:09:50.956Z,10.94
2018-03-15T12:10:51.111Z,10.90
2018-03-15T12:11:51.282Z,10.97
2018-03-15T12:12:51.450Z,11.05
2018-03-15T12:13:51.627Z,11.32
2018-03-15T12:14:51.804Z,11.33
2018-03-15T12:15:51.973Z,11.32
2018-03-15T12:16:52.202Z,11.65
2018-03-15T12:17:52.329Z,11.19
2018-03-15T12:18:52.705Z,11.19
2018-03-15T12:19:52.644Z,11.36
2018-03-15T12:20:52.860Z,10.86
2018-03-15T12:21:53.007Z,11.14
2018-03-15T12:22:53.177Z,11.26
2018-03-15T12:23:53.334Z,10.59
2018-03-15T12:24:53.495Z,10.87
2018-03-15T12:25:53.672Z,10.86
2018-03-15T12:26:53.847Z,11.12
2018-03-15T12:27:54.003Z,10.94
2018-03-15T12:28:54.170Z,10.93
2018-03-15T12:29:54.325Z,11.05
2018-03-15T12:30:54.501Z,11.26
2018-03-15T12:31:54.676Z,11.15
2018-03-15T12:32:54.843Z,11.35
2018-03-15T12:33:55.008Z,10.96
2018-03-15T12:34:55.187Z,11.27
2018-03-15T12:35:55.358Z,11.35
2018-03-15T12:36:55.544Z,11.19
2018-03-15T12:37:55.687Z,11.23
2018-03-15T12:38:55.857Z,11.48
2018-03-15T12:39:56.038Z,11.41
2018-03-15T12:40:56.207Z,11.55
2018-03-15T12:41:56.400Z,11.26
2018-03-15T12:42:56.614Z,10.96
2018-03-15T12:43:56.819Z,11.18
2018-03-15T12:44:56.971Z,11.22
2018-03-15T12:45:57.183Z,11.26
2018-03-15T12:46:58.329Z,11.32
2018-03-15T12:47:57.487Z,11.45
2018-03-15T12:48:57.685Z,11.17
2018-03-15T12:49:57.944Z,10.99
2018-03-15T12:50:58.496Z,10.99
2018-03-15T12:51:58.194Z,11.00
2018-03-15T12:52:58.312Z,11.18
2018-03-15T12:53:58.498Z,11.15
2018-03-15T12:54:58.661Z,11.17
2018-03-15T12:55:58.837Z,11.30
2018-03-15T12:56:59.029Z,11.25
2018-03-15T12:57:59.208Z,11.18
2018-03-15T12:58:59.400Z,11.44
2018-03-15T12:59:59.578Z,11.44
2018-03-15T13:00:59.753Z,11.40
2018-03-15T13:01:59.951Z,11.14
2018-03-15T13:03:00.113Z,11.27
2018-03-15T13:04:00.268Z,11.47
2018-03-15T13:05:01.144Z,11.54
2018-03-15T13:06:00.597Z,11.41
2018-03-15T13:07:00.792Z,11.25
2018-03-15T13:08:00.965Z,11.40
2018-03-15T13:09:01.135Z,11.37
2018-03-15T13:10:01.300Z,11.37
2018-03-15T13:11:01.488Z,11.25
2018-03-15T13:12:01.657Z,11.40
2018-03-15T13:13:01.802Z,11.33
2018-03-15T13:14:01.953Z,11.55
2018-03-15T13:15:02.132Z,11.75
2018-03-15T13:16:02.542Z,11.63